createdAt,value
2022-11-09T00:03:41.786Z,24.65
2022-11-09T00:08:44.109Z,19.90
2022-11-09T00:13:47.935Z,19.95
2022-11-09T00:18:50.565Z,19.00
2022-11-09T00:23:53.325Z,22.10
2022-11-09T00:28:55.768Z,21.17
2022-11-09T00:33:58.319Z,20.23
2022-11-09T00:39:01.836Z,23.25
2022-11-09T00:44:04.383Z,18.92
2022-11-09T00:49:06.814Z,20.38
2022-11-09T00:54:10.084Z,16.52
2022-11-09T00:59:12.556Z,19.33
2022-11-09T01:04:14.963Z,19.80
2022-11-09T01:09:17.527Z,19.45
2022-11-09T01:14:19.912Z,20.17
2022-11-09T01:19:22.312Z,20.23
2022-11-09T01:24:24.826Z,17.88
2022-11-09T01:29:27.317Z,21.05
2022-11-09T01:34:31.381Z,19.08
2022-11-09T01:39:36.595Z,22.63
2022-11-09T01:44:39.085Z,20.85
2022-11-09T01:49:55.200Z,25.95
2022-11-09T01:55:03.212Z,19.20
2022-11-09T02:00:07.867Z,20.15
2022-11-09T02:05:18.760Z,18.48
2022-11-09T02:10:29.380Z,20.27
2022-11-09T02:15:34.539Z,22.30
2022-11-09T02:20:48.296Z,21.17
2022-11-09T02:31:15.492Z,21.48
2022-11-09T02:36:19.372Z,19.80
2022-11-09T02:41:22.314Z,20.85
2022-11-09T02:46:26.412Z,20.15
2022-11-09T02:51:28.786Z,21.13
2022-11-09T02:56:31.276Z,20.80
2022-11-09T03:06:37.379Z,21.92
2022-11-09T03:11:46.814Z,22.38
2022-11-09T03:16:51.344Z,20.15
2022-11-09T03:21:54.789Z,19.20
2022-11-09T03:26:59.464Z,19.77
2022-11-09T03:32:02.746Z,19.70
2022-11-09T03:37:05.930Z,20.75
2022-11-09T03:42:08.307Z,23.30
2022-11-09T03:47:12.676Z,22.13
2022-11-09T03:52:14.987Z,21.63
2022-11-09T03:57:17.327Z,22.02
2022-11-09T04:02:19.632Z,18.75
2022-11-09T04:07:22.505Z,21.38
2022-11-09T04:12:24.824Z,21.10
2022-11-09T04:17:27.458Z,21.40
2022-11-09T04:22:29.761Z,22.60
2022-11-09T04:27:33.068Z,19.75
2022-11-09T04:32:35.397Z,24.00
2022-11-09T04:37:37.751Z,24.05
2022-11-09T04:42:40.168Z,21.88
2022-11-09T04:47:42.399Z,20.13
2022-11-09T04:52:44.610Z,22.25
2022-11-09T04:57:46.905Z,21.60
2022-11-09T05:02:49.178Z,19.98
2022-11-09T05:07:51.431Z,20.83
2022-11-09T05:13:08.611Z,21.67
2022-11-09T05:18:11.057Z,17.88
2022-11-09T05:23:31.997Z,18.45
2022-11-09T05:28:34.401Z,20.00
2022-11-09T05:33:37.783Z,21.52
2022-11-09T05:38:41.231Z,19.73
2022-11-09T05:43:47.552Z,23.95
2022-11-09T05:48:49.827Z,20.63
2022-11-09T05:53:53.103Z,19.50
2022-11-09T05:58:55.452Z,20.48
2022-11-09T06:03:57.682Z,24.17
2022-11-09T06:09:00.063Z,21.48
2022-11-09T06:14:02.434Z,22.15
2022-11-09T06:19:05.757Z,22.00
2022-11-09T06:24:08.214Z,22.45
2022-11-09T06:29:10.925Z,22.83
2022-11-09T06:34:13.194Z,29.42
2022-11-09T06:39:15.524Z,28.92
2022-11-09T06:44:18.901Z,23.02
2022-11-09T06:49:21.327Z,20.52
2022-11-09T06:54:24.633Z,19.17
2022-11-09T06:59:27.293Z,19.13
2022-11-09T07:04:32.240Z,21.55
2022-11-09T07:09:34.536Z,19.52
2022-11-09T07:14:36.824Z,24.77
2022-11-09T07:19:39.148Z,24.40
2022-11-09T07:24:41.592Z,21.50
2022-11-09T07:29:44.041Z,26.38
2022-11-09T07:34:47.708Z,22.92
2022-11-09T07:44:52.630Z,23.65
2022-11-09T07:49:55.064Z,22.90
2022-11-09T07:54:58.404Z,23.20
2022-11-09T08:00:01.248Z,30.30
2022-11-09T08:05:14.098Z,49.27
2022-11-09T08:10:16.404Z,38.45
2022-11-09T08:15:18.751Z,32.25
2022-11-09T08:20:22.064Z,24.27
2022-11-09T08:25:24.432Z,19.27
2022-11-09T08:30:27.155Z,24.25
2022-11-09T08:35:30.119Z,22.77
2022-11-09T08:40:33.306Z,25.92
2022-11-09T08:45:36.923Z,23.08
2022-11-09T08:55:43.864Z,27.70
2022-11-09T09:00:49.404Z,20.45
2022-11-09T09:05:54.825Z,19.63
2022-11-09T09:10:57.408Z,24.35
2022-11-09T09:16:09.755Z,31.63
2022-11-09T09:21:13.638Z,32.05
2022-11-09T09:26:16.770Z,35.92
2022-11-09T09:31:19.261Z,45.20
2022-11-09T09:36:24.519Z,49.08
2022-11-09T09:41:56.057Z,39.63
2022-11-09T09:47:04.342Z,30.35
2022-11-09T09:52:21.471Z,21.67
2022-11-09T09:57:25.271Z,21.58
2022-11-09T10:02:31.824Z,24.15
2022-11-09T10:08:04.064Z,21.73
2022-11-09T10:13:24.582Z,22.42
2022-11-09T10:18:26.805Z,27.83
2022-11-09T10:23:40.692Z,25.58
2022-11-09T10:34:34.383Z,22.98
2022-11-09T10:39:50.470Z,22.65
2022-11-09T10:45:16.840Z,16.50
2022-11-09T10:50:47.627Z,20.38
2022-11-09T10:56:20.227Z,30.23
2022-11-09T11:07:18.328Z,28.52
2022-11-09T11:12:43.484Z,37.28
2022-11-09T11:18:17.852Z,24.52
2022-11-09T11:23:39.024Z,19.40
2022-11-09T11:29:02.495Z,18.83
2022-11-09T11:34:53.391Z,24.80
2022-11-09T11:40:10.509Z,24.65
2022-11-09T11:45:42.958Z,20.67
2022-11-09T11:51:31.946Z,21.45
2022-11-09T11:57:22.038Z,18.17
2022-11-09T12:03:08.508Z,18.90
2022-11-09T12:08:34.119Z,20.58
2022-11-09T12:14:03.899Z,24.80
2022-11-09T12:19:40.816Z,27.13
2022-11-09T12:25:28.289Z,22.25
2022-11-09T12:31:09.784Z,22.33
2022-11-09T12:36:40.885Z,23.88
2022-11-09T12:47:32.111Z,79.90
2022-11-09T12:52:53.615Z,44.22
2022-11-09T12:58:23.118Z,48.08
2022-11-09T13:03:56.719Z,41.53
2022-11-09T13:09:25.727Z,42.22
2022-11-09T13:14:47.121Z,59.03
2022-11-09T13:26:32.565Z,38.75
2022-11-09T13:32:05.953Z,32.45
2022-11-09T13:37:41.823Z,29.10
2022-11-09T13:43:04.943Z,26.30
2022-11-09T13:48:48.434Z,29.63
2022-11-09T13:54:32.835Z,30.27
2022-11-09T14:05:35.473Z,78.65
2022-11-09T14:11:24.689Z,125.30
2022-11-09T14:16:59.833Z,92.32
2022-11-09T14:22:21.081Z,66.13
2022-11-09T14:28:00.485Z,47.60
2022-11-09T14:33:26.688Z,42.60
2022-11-09T14:38:48.270Z,38.25
2022-11-09T14:44:16.610Z,42.92
2022-11-09T14:49:38.571Z,34.67
2022-11-09T14:54:59.820Z,48.10
2022-11-09T15:00:30.232Z,42.22
2022-11-09T15:06:03.578Z,53.83
2022-11-09T15:11:36.389Z,47.65
2022-11-09T15:17:12.946Z,42.53
2022-11-09T15:22:55.719Z,66.05
2022-11-09T15:28:25.738Z,114.88
2022-11-09T15:33:51.300Z,92.47
2022-11-09T15:39:18.007Z,75.38
2022-11-09T15:44:42.534Z,86.07
2022-11-09T15:50:10.694Z,82.88
2022-11-09T15:55:33.324Z,85.72
2022-11-09T16:00:54.473Z,146.80
2022-11-09T16:06:19.180Z,284.95
2022-11-09T16:11:40.427Z,232.88
2022-11-09T16:17:03.317Z,160.20
2022-11-09T16:22:29.857Z,150.77
2022-11-09T16:27:51.617Z,101.82
2022-11-09T16:33:13.107Z,84.75
2022-11-09T16:38:43.902Z,79.45
2022-11-09T16:44:04.926Z,81.32
2022-11-09T16:49:25.989Z,63.40
2022-11-09T16:54:47.097Z,57.97
2022-11-09T17:00:10.203Z,63.28
2022-11-09T17:05:31.900Z,60.23
2022-11-09T17:10:53.137Z,73.15
2022-11-09T17:16:14.552Z,50.70
2022-11-09T17:21:35.344Z,41.08
2022-11-09T17:26:56.193Z,38.05
2022-11-09T17:32:17.689Z,41.78
2022-11-09T17:37:38.594Z,34.42
2022-11-09T17:43:00.346Z,35.03
2022-11-09T17:48:21.941Z,33.65
2022-11-09T17:53:43.665Z,27.02
2022-11-09T17:59:05.693Z,25.83
2022-11-09T18:04:26.713Z,28.98
2022-11-09T18:09:48.304Z,33.28
2022-11-09T18:15:09.571Z,41.50
2022-11-09T18:20:30.929Z,43.47
2022-11-09T18:25:58.596Z,38.35
2022-11-09T18:31:19.881Z,39.97
2022-11-09T18:36:43.045Z,29.73
2022-11-09T18:42:08.187Z,33.60
2022-11-09T18:47:29.355Z,31.90
2022-11-09T18:52:52.578Z,41.50
2022-11-09T18:58:13.929Z,39.38
2022-11-09T19:03:35.251Z,49.05
2022-11-09T19:09:15.204Z,47.85
2022-11-09T19:14:46.701Z,41.92
2022-11-09T19:20:08.166Z,37.95
2022-11-09T19:25:29.473Z,41.97
2022-11-09T19:30:50.856Z,47.10
2022-11-09T19:41:53.546Z,39.13
2022-11-09T19:47:15.280Z,37.40
2022-11-09T19:52:37.670Z,33.53
2022-11-09T19:57:59.330Z,35.90
2022-11-09T20:03:20.673Z,32.25
2022-11-09T20:08:42.271Z,31.13
2022-11-09T20:14:07.739Z,31.30
2022-11-09T20:19:28.766Z,32.88
2022-11-09T20:24:49.917Z,29.05
2022-11-09T20:30:11.682Z,29.90
2022-11-09T20:35:33.301Z,28.38
2022-11-09T20:40:58.355Z,30.92
2022-11-09T20:46:22.041Z,24.00
2022-11-09T20:51:43.386Z,26.13
2022-11-09T20:57:04.857Z,26.02
2022-11-09T21:02:28.591Z,30.30
2022-11-09T21:07:50.274Z,27.25
2022-11-09T21:13:11.631Z,27.08
2022-11-09T21:18:35.779Z,26.42
2022-11-09T21:24:14.962Z,32.00
2022-11-09T21:29:51.870Z,24.88
2022-11-09T21:35:13.420Z,30.27
2022-11-09T21:40:34.376Z,30.67
2022-11-09T21:46:10.238Z,28.35
2022-11-09T21:51:39.700Z,30.40
2022-11-09T21:57:00.838Z,30.85
2022-11-09T22:02:21.763Z,26.23
2022-11-09T22:07:42.798Z,25.52
2022-11-09T22:13:23.121Z,32.38
2022-11-09T22:19:03.613Z,30.75
2022-11-09T22:24:28.653Z,36.10
2022-11-09T22:29:58.215Z,35.28
2022-11-09T22:41:13.505Z,33.13
2022-11-09T22:46:47.430Z,30.45
2022-11-09T22:52:18.229Z,25.02
2022-11-09T22:58:46.938Z,29.50
2022-11-09T23:05:31.291Z,28.15
2022-11-09T23:11:03.181Z,27.95
2022-11-09T23:16:27.063Z,28.80
2022-11-09T23:21:50.000Z,26.38
2022-11-09T23:27:10.806Z,26.45
2022-11-09T23:32:38.222Z,24.20
2022-11-09T23:38:23.859Z,27.23
2022-11-09T23:43:49.342Z,23.25
2022-11-09T23:49:12.911Z,23.15
2022-11-09T23:54:34.248Z,19.97
